sensor_id;sensor_type;location;lat;lon;timestamp;P1;durP1;ratioP1;P2;durP2;ratioP2
16119;SDS011;12670;53.502;10.252;2023-10-09T00:00:47;5.10;;;1.90;;
16119;SDS011;12670;53.502;10.252;2023-10-09T00:03:57;3.53;;;1.90;;
16119;SDS011;12670;53.502;10.252;2023-10-09T00:07:04;4.47;;;2.30;;
16119;SDS011;12670;53.502;10.252;2023-10-09T00:10:09;4.80;;;1.90;;
16119;SDS011;12670;53.502;10.252;2023-10-09T00:13:13;7.17;;;1.70;;
16119;SDS011;12670;53.502;10.252;2023-10-09T00:16:17;3.03;;;1.63;;
16119;SDS011;12670;53.502;10.252;2023-10-09T00:19:25;3.67;;;1.80;;
16119;SDS011;12670;53.502;10.252;2023-10-09T00:22:32;5.33;;;2.03;;
16119;SDS011;12670;53.502;10.252;2023-10-09T00:25:39;6.40;;;2.07;;
16119;SDS011;12670;53.502;10.252;2023-10-09T00:28:47;5.60;;;2.30;;
16119;SDS011;12670;53.502;10.252;2023-10-09T00:31:52;4.10;;;1.97;;
16119;SDS011;12670;53.502;10.252;2023-10-09T00:35:04;5.47;;;1.77;;
16119;SDS011;12670;53.502;10.252;2023-10-09T00:38:37;6.30;;;1.93;;
16119;SDS011;12670;53.502;10.252;2023-10-09T00:41:46;5.57;;;2.00;;
16119;SDS011;12670;53.502;10.252;2023-10-09T00:44:49;5.90;;;1.97;;
16119;SDS011;12670;53.502;10.252;2023-10-09T00:47:52;6.13;;;2.33;;
16119;SDS011;12670;53.502;10.252;2023-10-09T00:51:04;4.77;;;2.00;;
16119;SDS011;12670;53.502;10.252;2023-10-09T00:54:19;5.27;;;2.20;;
16119;SDS011;12670;53.502;10.252;2023-10-09T00:57:28;5.47;;;1.97;;
16119;SDS011;12670;53.502;10.252;2023-10-09T01:00:35;4.77;;;2.20;;
16119;SDS011;12670;53.502;10.252;2023-10-09T01:03:47;7.63;;;2.00;;
16119;SDS011;12670;53.502;10.252;2023-10-09T01:06:53;5.37;;;2.00;;
16119;SDS011;12670;53.502;10.252;2023-10-09T01:10:11;5.37;;;1.97;;
16119;SDS011;12670;53.502;10.252;2023-10-09T01:13:13;5.33;;;1.90;;
16119;SDS011;12670;53.502;10.252;2023-10-09T01:16:21;8.33;;;2.20;;
16119;SDS011;12670;53.502;10.252;2023-10-09T01:19:24;9.43;;;2.20;;
16119;SDS011;12670;53.502;10.252;2023-10-09T01:22:28;4.67;;;2.17;;
16119;SDS011;12670;53.502;10.252;2023-10-09T01:25:33;4.80;;;2.20;;
16119;SDS011;12670;53.502;10.252;2023-10-09T01:28:44;4.23;;;2.00;;
16119;SDS011;12670;53.502;10.252;2023-10-09T01:31:47;10.50;;;2.20;;
16119;SDS011;12670;53.502;10.252;2023-10-09T01:34:56;9.20;;;2.13;;
16119;SDS011;12670;53.502;10.252;2023-10-09T01:37:59;4.33;;;1.90;;
16119;SDS011;12670;53.502;10.252;2023-10-09T01:41:03;9.03;;;2.27;;
16119;SDS011;12670;53.502;10.252;2023-10-09T01:44:09;6.30;;;2.37;;
16119;SDS011;12670;53.502;10.252;2023-10-09T01:47:14;4.83;;;2.10;;
16119;SDS011;12670;53.502;10.252;2023-10-09T01:50:19;4.50;;;2.10;;
16119;SDS011;12670;53.502;10.252;2023-10-09T01:53:26;3.90;;;2.07;;
16119;SDS011;12670;53.502;10.252;2023-10-09T01:56:32;4.97;;;2.17;;
16119;SDS011;12670;53.502;10.252;2023-10-09T01:59:39;10.13;;;2.23;;
16119;SDS011;12670;53.502;10.252;2023-10-09T02:02:45;5.80;;;2.10;;
16119;SDS011;12670;53.502;10.252;2023-10-09T02:05:48;5.90;;;2.20;;
16119;SDS011;12670;53.502;10.252;2023-10-09T02:08:52;6.37;;;2.13;;
16119;SDS011;12670;53.502;10.252;2023-10-09T02:11:57;6.37;;;2.40;;
16119;SDS011;12670;53.502;10.252;2023-10-09T02:14:59;7.27;;;2.30;;
16119;SDS011;12670;53.502;10.252;2023-10-09T02:18:10;8.03;;;2.80;;
16119;SDS011;12670;53.502;10.252;2023-10-09T02:21:40;6.33;;;2.30;;
16119;SDS011;12670;53.502;10.252;2023-10-09T02:24:45;6.73;;;2.07;;
16119;SDS011;12670;53.502;10.252;2023-10-09T02:27:59;5.07;;;2.07;;
16119;SDS011;12670;53.502;10.252;2023-10-09T02:31:09;9.83;;;2.00;;
16119;SDS011;12670;53.502;10.252;2023-10-09T02:34:12;5.83;;;2.17;;
16119;SDS011;12670;53.502;10.252;2023-10-09T02:37:19;12.33;;;2.90;;
16119;SDS011;12670;53.502;10.252;2023-10-09T02:40:27;5.97;;;1.90;;
16119;SDS011;12670;53.502;10.252;2023-10-09T02:43:34;4.13;;;2.03;;
16119;SDS011;12670;53.502;10.252;2023-10-09T02:46:46;6.70;;;1.90;;
16119;SDS011;12670;53.502;10.252;2023-10-09T02:49:48;4.63;;;2.07;;
16119;SDS011;12670;53.502;10.252;2023-10-09T02:52:53;5.13;;;1.70;;
16119;SDS011;12670;53.502;10.252;2023-10-09T02:56:01;5.67;;;2.10;;
16119;SDS011;12670;53.502;10.252;2023-10-09T02:59:14;3.23;;;1.67;;
16119;SDS011;12670;53.502;10.252;2023-10-09T03:02:17;4.20;;;1.90;;
16119;SDS011;12670;53.502;10.252;2023-10-09T03:05:20;4.20;;;1.77;;
16119;SDS011;12670;53.502;10.252;2023-10-09T03:08:24;4.63;;;1.53;;
16119;SDS011;12670;53.502;10.252;2023-10-09T03:11:28;3.23;;;1.70;;
16119;SDS011;12670;53.502;10.252;2023-10-09T03:14:34;5.60;;;2.20;;
16119;SDS011;12670;53.502;10.252;2023-10-09T03:17:39;7.53;;;2.10;;
16119;SDS011;12670;53.502;10.252;2023-10-09T03:20:44;4.23;;;1.90;;
16119;SDS011;12670;53.502;10.252;2023-10-09T03:23:48;4.20;;;1.70;;
16119;SDS011;12670;53.502;10.252;2023-10-09T03:26:51;5.37;;;2.10;;
16119;SDS011;12670;53.502;10.252;2023-10-09T03:29:57;6.67;;;1.97;;
16119;SDS011;12670;53.502;10.252;2023-10-09T03:33:00;5.10;;;1.73;;
16119;SDS011;12670;53.502;10.252;2023-10-09T03:36:05;4.73;;;1.70;;
16119;SDS011;12670;53.502;10.252;2023-10-09T03:39:11;10.23;;;3.23;;
16119;SDS011;12670;53.502;10.252;2023-10-09T03:42:26;3.27;;;1.80;;
16119;SDS011;12670;53.502;10.252;2023-10-09T03:45:31;4.10;;;1.80;;
16119;SDS011;12670;53.502;10.252;2023-10-09T03:48:37;11.43;;;1.90;;
16119;SDS011;12670;53.502;10.252;2023-10-09T03:51:39;7.43;;;2.00;;
16119;SDS011;12670;53.502;10.252;2023-10-09T03:54:45;3.97;;;1.80;;
16119;SDS011;12670;53.502;10.252;2023-10-09T03:57:48;4.47;;;1.90;;
16119;SDS011;12670;53.502;10.252;2023-10-09T04:00:51;4.70;;;2.00;;
16119;SDS011;12670;53.502;10.252;2023-10-09T04:03:56;6.87;;;1.67;;
16119;SDS011;12670;53.502;10.252;2023-10-09T04:07:01;3.83;;;1.77;;
16119;SDS011;12670;53.502;10.252;2023-10-09T04:10:06;5.10;;;2.00;;
16119;SDS011;12670;53.502;10.252;2023-10-09T04:13:33;10.20;;;2.23;;
16119;SDS011;12670;53.502;10.252;2023-10-09T04:16:36;12.57;;;2.37;;
16119;SDS011;12670;53.502;10.252;2023-10-09T04:19:52;4.27;;;1.77;;
16119;SDS011;12670;53.502;10.252;2023-10-09T04:23:21;4.67;;;1.87;;
16119;SDS011;12670;53.502;10.252;2023-10-09T04:26:37;4.90;;;2.23;;
16119;SDS011;12670;53.502;10.252;2023-10-09T04:29:45;6.53;;;2.17;;
16119;SDS011;12670;53.502;10.252;2023-10-09T04:32:51;5.87;;;1.90;;
16119;SDS011;12670;53.502;10.252;2023-10-09T04:36:00;3.87;;;1.77;;
16119;SDS011;12670;53.502;10.252;2023-10-09T04:39:24;4.47;;;1.63;;
16119;SDS011;12670;53.502;10.252;2023-10-09T04:42:50;5.83;;;1.90;;
16119;SDS011;12670;53.502;10.252;2023-10-09T04:45:59;5.43;;;1.70;;
16119;SDS011;12670;53.502;10.252;2023-10-09T04:49:11;3.73;;;2.00;;
16119;SDS011;12670;53.502;10.252;2023-10-09T04:52:29;3.83;;;1.80;;
16119;SDS011;12670;53.502;10.252;2023-10-09T04:55:49;4.43;;;2.07;;
16119;SDS011;12670;53.502;10.252;2023-10-09T04:59:00;3.70;;;1.80;;
16119;SDS011;12670;53.502;10.252;2023-10-09T05:02:09;5.20;;;1.67;;
16119;SDS011;12670;53.502;10.252;2023-10-09T05:05:20;6.50;;;1.77;;
16119;SDS011;12670;53.502;10.252;2023-10-09T05:08:37;5.37;;;2.10;;
16119;SDS011;12670;53.502;10.252;2023-10-09T05:11:47;4.00;;;1.73;;
16119;SDS011;12670;53.502;10.252;2023-10-09T05:14:56;4.53;;;1.80;;
16119;SDS011;12670;53.502;10.252;2023-10-09T05:18:10;6.13;;;2.13;;
16119;SDS011;12670;53.502;10.252;2023-10-09T05:21:17;5.57;;;1.70;;
16119;SDS011;12670;53.502;10.252;2023-10-09T05:24:38;3.17;;;1.70;;
16119;SDS011;12670;53.502;10.252;2023-10-09T05:27:48;4.80;;;1.67;;
16119;SDS011;12670;53.502;10.252;2023-10-09T05:30:57;4.80;;;1.87;;
16119;SDS011;12670;53.502;10.252;2023-10-09T05:34:09;5.17;;;2.00;;
16119;SDS011;12670;53.502;10.252;2023-10-09T05:37:13;3.77;;;1.70;;
16119;SDS011;12670;53.502;10.252;2023-10-09T05:40:18;6.43;;;1.80;;
16119;SDS011;12670;53.502;10.252;2023-10-09T05:43:32;3.97;;;1.90;;
16119;SDS011;12670;53.502;10.252;2023-10-09T05:46:53;3.87;;;1.80;;
16119;SDS011;12670;53.502;10.252;2023-10-09T05:50:24;5.03;;;1.57;;
16119;SDS011;12670;53.502;10.252;2023-10-09T05:53:35;5.20;;;1.63;;
16119;SDS011;12670;53.502;10.252;2023-10-09T05:57:12;3.03;;;1.70;;
16119;SDS011;12670;53.502;10.252;2023-10-09T06:00:32;3.37;;;1.80;;
16119;SDS011;12670;53.502;10.252;2023-10-09T06:03:54;4.80;;;1.70;;
16119;SDS011;12670;53.502;10.252;2023-10-09T06:07:02;5.43;;;2.23;;
16119;SDS011;12670;53.502;10.252;2023-10-09T06:10:14;47.73;;;26.43;;
16119;SDS011;12670;53.502;10.252;2023-10-09T06:13:34;25.33;;;12.93;;
16119;SDS011;12670;53.502;10.252;2023-10-09T06:16:39;23.37;;;12.07;;
16119;SDS011;12670;53.502;10.252;2023-10-09T06:19:45;7.73;;;2.17;;
16119;SDS011;12670;53.502;10.252;2023-10-09T06:22:50;5.30;;;2.17;;
16119;SDS011;12670;53.502;10.252;2023-10-09T06:26:00;2.93;;;1.57;;
16119;SDS011;12670;53.502;10.252;2023-10-09T06:29:22;5.60;;;2.23;;
16119;SDS011;12670;53.502;10.252;2023-10-09T06:32:36;6.23;;;2.10;;
16119;SDS011;12670;53.502;10.252;2023-10-09T06:35:40;4.43;;;2.07;;
16119;SDS011;12670;53.502;10.252;2023-10-09T06:38:54;4.47;;;2.03;;
16119;SDS011;12670;53.502;10.252;2023-10-09T06:42:18;6.57;;;1.70;;
16119;SDS011;12670;53.502;10.252;2023-10-09T06:45:34;5.20;;;2.00;;
16119;SDS011;12670;53.502;10.252;2023-10-09T06:48:45;6.70;;;1.67;;
16119;SDS011;12670;53.502;10.252;2023-10-09T06:51:59;4.20;;;1.67;;
16119;SDS011;12670;53.502;10.252;2023-10-09T06:55:16;6.87;;;2.10;;
16119;SDS011;12670;53.502;10.252;2023-10-09T06:58:21;7.90;;;2.03;;
16119;SDS011;12670;53.502;10.252;2023-10-09T07:01:28;6.50;;;2.10;;
16119;SDS011;12670;53.502;10.252;2023-10-09T07:04:41;7.03;;;2.20;;
16119;SDS011;12670;53.502;10.252;2023-10-09T07:07:50;4.97;;;2.30;;
16119;SDS011;12670;53.502;10.252;2023-10-09T07:10:56;8.87;;;2.40;;
16119;SDS011;12670;53.502;10.252;2023-10-09T07:14:19;10.50;;;2.17;;
16119;SDS011;12670;53.502;10.252;2023-10-09T07:17:54;7.53;;;2.80;;
16119;SDS011;12670;53.502;10.252;2023-10-09T07:20:57;5.83;;;2.60;;
16119;SDS011;12670;53.502;10.252;2023-10-09T07:24:04;5.90;;;2.40;;
16119;SDS011;12670;53.502;10.252;2023-10-09T07:27:16;7.70;;;2.30;;
16119;SDS011;12670;53.502;10.252;2023-10-09T07:30:19;7.47;;;2.60;;
16119;SDS011;12670;53.502;10.252;2023-10-09T07:33:36;6.47;;;2.40;;
16119;SDS011;12670;53.502;10.252;2023-10-09T07:36:58;6.07;;;2.43;;
16119;SDS011;12670;53.502;10.252;2023-10-09T07:40:07;8.03;;;2.77;;
16119;SDS011;12670;53.502;10.252;2023-10-09T07:43:11;8.30;;;3.27;;
16119;SDS011;12670;53.502;10.252;2023-10-09T07:46:18;4.43;;;2.30;;
16119;SDS011;12670;53.502;10.252;2023-10-09T07:49:34;5.57;;;2.93;;
16119;SDS011;12670;53.502;10.252;2023-10-09T07:52:38;4.93;;;2.90;;
16119;SDS011;12670;53.502;10.252;2023-10-09T07:55:47;4.63;;;2.90;;
16119;SDS011;12670;53.502;10.252;2023-10-09T07:58:56;6.80;;;3.27;;
16119;SDS011;12670;53.502;10.252;2023-10-09T08:02:01;7.10;;;3.23;;
16119;SDS011;12670;53.502;10.252;2023-10-09T08:05:04;5.33;;;3.13;;
16119;SDS011;12670;53.502;10.252;2023-10-09T08:08:19;4.40;;;3.00;;
16119;SDS011;12670;53.502;10.252;2023-10-09T08:11:42;6.20;;;2.90;;
16119;SDS011;12670;53.502;10.252;2023-10-09T08:15:00;6.83;;;2.90;;
16119;SDS011;12670;53.502;10.252;2023-10-09T08:18:22;8.27;;;3.40;;
16119;SDS011;12670;53.502;10.252;2023-10-09T08:21:30;5.97;;;2.83;;
16119;SDS011;12670;53.502;10.252;2023-10-09T08:24:45;4.23;;;3.07;;
16119;SDS011;12670;53.502;10.252;2023-10-09T08:27:59;7.33;;;3.50;;
16119;SDS011;12670;53.502;10.252;2023-10-09T08:31:20;7.30;;;3.20;;
16119;SDS011;12670;53.502;10.252;2023-10-09T08:34:46;4.67;;;2.80;;
16119;SDS011;12670;53.502;10.252;2023-10-09T08:37:57;8.03;;;3.47;;
16119;SDS011;12670;53.502;10.252;2023-10-09T08:41:07;6.57;;;3.57;;
16119;SDS011;12670;53.502;10.252;2023-10-09T08:44:24;7.17;;;3.63;;
16119;SDS011;12670;53.502;10.252;2023-10-09T08:47:30;6.83;;;3.40;;
16119;SDS011;12670;53.502;10.252;2023-10-09T08:50:35;8.47;;;3.37;;
16119;SDS011;12670;53.502;10.252;2023-10-09T08:53:38;7.57;;;3.23;;
16119;SDS011;12670;53.502;10.252;2023-10-09T08:56:44;7.63;;;3.70;;
16119;SDS011;12670;53.502;10.252;2023-10-09T08:59:53;4.97;;;3.23;;
16119;SDS011;12670;53.502;10.252;2023-10-09T09:02:58;5.03;;;3.23;;
16119;SDS011;12670;53.502;10.252;2023-10-09T09:06:02;7.90;;;3.20;;
16119;SDS011;12670;53.502;10.252;2023-10-09T09:09:09;4.53;;;3.00;;
16119;SDS011;12670;53.502;10.252;2023-10-09T09:12:16;4.93;;;2.90;;
16119;SDS011;12670;53.502;10.252;2023-10-09T09:15:20;5.10;;;2.80;;
16119;SDS011;12670;53.502;10.252;2023-10-09T09:18:28;5.63;;;2.90;;
16119;SDS011;12670;53.502;10.252;2023-10-09T09:21:40;4.13;;;2.70;;
16119;SDS011;12670;53.502;10.252;2023-10-09T09:24:56;6.43;;;3.33;;
16119;SDS011;12670;53.502;10.252;2023-10-09T09:28:04;4.20;;;3.00;;
16119;SDS011;12670;53.502;10.252;2023-10-09T09:31:15;4.30;;;3.10;;
16119;SDS011;12670;53.502;10.252;2023-10-09T09:34:23;4.80;;;3.50;;
16119;SDS011;12670;53.502;10.252;2023-10-09T09:37:31;8.00;;;3.20;;
16119;SDS011;12670;53.502;10.252;2023-10-09T09:40:52;4.70;;;3.00;;
16119;SDS011;12670;53.502;10.252;2023-10-09T09:43:57;5.03;;;2.97;;
16119;SDS011;12670;53.502;10.252;2023-10-09T09:47:03;3.87;;;2.90;;
16119;SDS011;12670;53.502;10.252;2023-10-09T09:50:07;5.03;;;3.53;;
16119;SDS011;12670;53.502;10.252;2023-10-09T09:53:15;3.60;;;3.00;;
16119;SDS011;12670;53.502;10.252;2023-10-09T09:56:18;6.10;;;2.77;;
16119;SDS011;12670;53.502;10.252;2023-10-09T09:59:26;5.83;;;2.97;;
16119;SDS011;12670;53.502;10.252;2023-10-09T10:02:32;4.67;;;2.93;;
16119;SDS011;12670;53.502;10.252;2023-10-09T10:05:40;4.90;;;2.77;;
16119;SDS011;12670;53.502;10.252;2023-10-09T10:08:47;5.20;;;3.00;;
16119;SDS011;12670;53.502;10.252;2023-10-09T10:11:52;4.50;;;2.83;;
16119;SDS011;12670;53.502;10.252;2023-10-09T10:14:56;4.00;;;2.90;;
16119;SDS011;12670;53.502;10.252;2023-10-09T10:18:08;3.40;;;2.33;;
16119;SDS011;12670;53.502;10.252;2023-10-09T10:21:17;3.80;;;2.73;;
16119;SDS011;12670;53.502;10.252;2023-10-09T10:24:40;4.17;;;2.50;;
16119;SDS011;12670;53.502;10.252;2023-10-09T10:28:17;2.90;;;2.20;;
16119;SDS011;12670;53.502;10.252;2023-10-09T10:34:57;3.43;;;2.13;;
16119;SDS011;12670;53.502;10.252;2023-10-09T10:38:21;4.27;;;2.33;;
16119;SDS011;12670;53.502;10.252;2023-10-09T10:41:24;3.43;;;2.30;;
16119;SDS011;12670;53.502;10.252;2023-10-09T10:44:28;2.80;;;2.30;;
16119;SDS011;12670;53.502;10.252;2023-10-09T10:47:43;4.57;;;2.10;;
16119;SDS011;12670;53.502;10.252;2023-10-09T10:50:50;3.17;;;1.97;;
16119;SDS011;12670;53.502;10.252;2023-10-09T10:53:59;3.17;;;2.23;;
16119;SDS011;12670;53.502;10.252;2023-10-09T10:57:18;2.40;;;1.60;;
16119;SDS011;12670;53.502;10.252;2023-10-09T11:00:54;4.03;;;1.90;;
16119;SDS011;12670;53.502;10.252;2023-10-09T11:04:17;4.27;;;2.50;;
16119;SDS011;12670;53.502;10.252;2023-10-09T11:07:27;2.50;;;1.63;;
16119;SDS011;12670;53.502;10.252;2023-10-09T11:10:32;2.70;;;1.80;;
16119;SDS011;12670;53.502;10.252;2023-10-09T11:13:35;1.83;;;1.63;;
16119;SDS011;12670;53.502;10.252;2023-10-09T11:16:53;2.63;;;1.60;;
16119;SDS011;12670;53.502;10.252;2023-10-09T11:20:00;2.10;;;1.60;;
16119;SDS011;12670;53.502;10.252;2023-10-09T11:23:25;2.03;;;1.70;;
16119;SDS011;12670;53.502;10.252;2023-10-09T11:26:38;2.97;;;1.63;;
16119;SDS011;12670;53.502;10.252;2023-10-09T11:29:47;1.90;;;1.50;;
16119;SDS011;12670;53.502;10.252;2023-10-09T11:33:05;1.40;;;1.20;;
16119;SDS011;12670;53.502;10.252;2023-10-09T11:36:15;1.30;;;1.20;;
16119;SDS011;12670;53.502;10.252;2023-10-09T11:39:24;1.70;;;1.20;;
16119;SDS011;12670;53.502;10.252;2023-10-09T11:42:35;1.63;;;1.30;;
16119;SDS011;12670;53.502;10.252;2023-10-09T11:45:39;1.60;;;1.33;;
16119;SDS011;12670;53.502;10.252;2023-10-09T11:49:02;1.40;;;1.30;;
16119;SDS011;12670;53.502;10.252;2023-10-09T11:52:17;1.50;;;1.20;;
16119;SDS011;12670;53.502;10.252;2023-10-09T11:55:39;1.50;;;1.20;;
16119;SDS011;12670;53.502;10.252;2023-10-09T11:58:42;7.73;;;2.03;;
16119;SDS011;12670;53.502;10.252;2023-10-09T12:01:45;3.90;;;1.23;;
16119;SDS011;12670;53.502;10.252;2023-10-09T12:04:54;1.50;;;1.30;;
16119;SDS011;12670;53.502;10.252;2023-10-09T12:07:58;1.10;;;1.00;;
16119;SDS011;12670;53.502;10.252;2023-10-09T12:11:04;1.47;;;1.10;;
16119;SDS011;12670;53.502;10.252;2023-10-09T12:14:10;1.33;;;1.10;;
16119;SDS011;12670;53.502;10.252;2023-10-09T12:17:12;1.40;;;1.20;;
16119;SDS011;12670;53.502;10.252;2023-10-09T12:20:16;1.80;;;1.50;;
16119;SDS011;12670;53.502;10.252;2023-10-09T12:23:32;2.87;;;1.80;;
16119;SDS011;12670;53.502;10.252;2023-10-09T12:26:38;1.90;;;1.60;;
16119;SDS011;12670;53.502;10.252;2023-10-09T12:29:43;1.93;;;1.43;;
16119;SDS011;12670;53.502;10.252;2023-10-09T12:32:50;3.00;;;1.73;;
16119;SDS011;12670;53.502;10.252;2023-10-09T12:35:53;3.20;;;1.20;;
16119;SDS011;12670;53.502;10.252;2023-10-09T12:39:01;1.20;;;1.10;;
16119;SDS011;12670;53.502;10.252;2023-10-09T12:42:05;1.90;;;1.27;;
16119;SDS011;12670;53.502;10.252;2023-10-09T12:45:10;1.20;;;1.10;;
16119;SDS011;12670;53.502;10.252;2023-10-09T12:48:14;1.73;;;1.50;;
16119;SDS011;12670;53.502;10.252;2023-10-09T12:51:16;1.37;;;1.23;;
16119;SDS011;12670;53.502;10.252;2023-10-09T12:54:19;3.63;;;1.50;;
16119;SDS011;12670;53.502;10.252;2023-10-09T12:57:29;3.33;;;1.50;;
16119;SDS011;12670;53.502;10.252;2023-10-09T13:00:32;3.37;;;1.83;;
16119;SDS011;12670;53.502;10.252;2023-10-09T13:03:38;3.27;;;1.50;;
16119;SDS011;12670;53.502;10.252;2023-10-09T13:06:41;1.40;;;1.30;;
16119;SDS011;12670;53.502;10.252;2023-10-09T13:09:46;1.60;;;1.30;;
16119;SDS011;12670;53.502;10.252;2023-10-09T13:13:10;1.23;;;1.13;;
16119;SDS011;12670;53.502;10.252;2023-10-09T13:16:14;3.27;;;1.57;;
16119;SDS011;12670;53.502;10.252;2023-10-09T13:19:24;1.97;;;1.53;;
16119;SDS011;12670;53.502;10.252;2023-10-09T13:22:27;1.90;;;1.33;;
16119;SDS011;12670;53.502;10.252;2023-10-09T13:25:31;2.23;;;1.57;;
16119;SDS011;12670;53.502;10.252;2023-10-09T13:28:42;3.33;;;1.40;;
16119;SDS011;12670;53.502;10.252;2023-10-09T13:31:46;2.83;;;2.03;;
16119;SDS011;12670;53.502;10.252;2023-10-09T13:34:49;2.30;;;1.43;;
16119;SDS011;12670;53.502;10.252;2023-10-09T13:37:55;1.93;;;1.27;;
16119;SDS011;12670;53.502;10.252;2023-10-09T13:40:57;4.13;;;1.30;;
16119;SDS011;12670;53.502;10.252;2023-10-09T13:44:04;1.33;;;1.23;;
16119;SDS011;12670;53.502;10.252;2023-10-09T13:47:07;1.87;;;1.20;;
16119;SDS011;12670;53.502;10.252;2023-10-09T13:50:20;1.20;;;1.10;;
16119;SDS011;12670;53.502;10.252;2023-10-09T13:53:26;1.90;;;1.40;;
16119;SDS011;12670;53.502;10.252;2023-10-09T13:56:29;2.10;;;1.50;;
16119;SDS011;12670;53.502;10.252;2023-10-09T13:59:33;1.30;;;1.20;;
16119;SDS011;12670;53.502;10.252;2023-10-09T14:02:37;1.70;;;1.57;;
16119;SDS011;12670;53.502;10.252;2023-10-09T14:05:40;1.77;;;1.50;;
16119;SDS011;12670;53.502;10.252;2023-10-09T14:08:53;1.77;;;1.50;;
16119;SDS011;12670;53.502;10.252;2023-10-09T14:11:56;1.73;;;1.40;;
16119;SDS011;12670;53.502;10.252;2023-10-09T14:15:09;1.73;;;1.50;;
16119;SDS011;12670;53.502;10.252;2023-10-09T14:18:18;4.23;;;1.27;;
16119;SDS011;12670;53.502;10.252;2023-10-09T14:21:21;1.77;;;1.30;;
16119;SDS011;12670;53.502;10.252;2023-10-09T14:24:26;1.73;;;1.23;;
16119;SDS011;12670;53.502;10.252;2023-10-09T14:27:34;2.23;;;1.67;;
16119;SDS011;12670;53.502;10.252;2023-10-09T14:30:38;2.47;;;1.90;;
16119;SDS011;12670;53.502;10.252;2023-10-09T14:33:44;3.40;;;2.07;;
16119;SDS011;12670;53.502;10.252;2023-10-09T14:36:52;2.10;;;1.70;;
16119;SDS011;12670;53.502;10.252;2023-10-09T14:39:55;3.30;;;2.00;;
16119;SDS011;12670;53.502;10.252;2023-10-09T14:42:59;3.33;;;1.83;;
16119;SDS011;12670;53.502;10.252;2023-10-09T14:46:03;5.07;;;1.80;;
16119;SDS011;12670;53.502;10.252;2023-10-09T14:49:12;4.33;;;2.27;;
16119;SDS011;12670;53.502;10.252;2023-10-09T14:52:15;1.77;;;1.67;;
16119;SDS011;12670;53.502;10.252;2023-10-09T14:55:20;2.40;;;2.00;;
16119;SDS011;12670;53.502;10.252;2023-10-09T14:58:30;2.20;;;1.93;;
16119;SDS011;12670;53.502;10.252;2023-10-09T15:01:37;2.67;;;2.20;;
16119;SDS011;12670;53.502;10.252;2023-10-09T15:04:40;4.20;;;2.30;;
16119;SDS011;12670;53.502;10.252;2023-10-09T15:07:43;4.37;;;2.20;;
16119;SDS011;12670;53.502;10.252;2023-10-09T15:10:48;2.93;;;2.07;;
16119;SDS011;12670;53.502;10.252;2023-10-09T15:13:53;3.97;;;2.13;;
16119;SDS011;12670;53.502;10.252;2023-10-09T15:16:57;2.40;;;2.20;;
16119;SDS011;12670;53.502;10.252;2023-10-09T15:19:59;2.50;;;2.10;;
16119;SDS011;12670;53.502;10.252;2023-10-09T15:23:03;2.80;;;2.00;;
16119;SDS011;12670;53.502;10.252;2023-10-09T15:26:06;3.00;;;2.23;;
16119;SDS011;12670;53.502;10.252;2023-10-09T15:29:10;3.17;;;2.40;;
16119;SDS011;12670;53.502;10.252;2023-10-09T15:32:14;3.90;;;2.00;;
16119;SDS011;12670;53.502;10.252;2023-10-09T15:35:23;2.60;;;2.13;;
16119;SDS011;12670;53.502;10.252;2023-10-09T15:38:26;3.50;;;2.10;;
16119;SDS011;12670;53.502;10.252;2023-10-09T15:41:30;3.70;;;2.20;;
16119;SDS011;12670;53.502;10.252;2023-10-09T15:44:33;4.50;;;3.07;;
16119;SDS011;12670;53.502;10.252;2023-10-09T15:47:39;5.70;;;3.60;;
16119;SDS011;12670;53.502;10.252;2023-10-09T15:50:44;7.10;;;3.80;;
16119;SDS011;12670;53.502;10.252;2023-10-09T15:53:49;7.57;;;5.37;;
16119;SDS011;12670;53.502;10.252;2023-10-09T15:56:53;9.07;;;4.60;;
16119;SDS011;12670;53.502;10.252;2023-10-09T16:00:02;8.97;;;4.60;;
16119;SDS011;12670;53.502;10.252;2023-10-09T16:03:16;11.47;;;5.37;;
16119;SDS011;12670;53.502;10.252;2023-10-09T16:06:20;8.50;;;4.30;;
16119;SDS011;12670;53.502;10.252;2023-10-09T16:09:28;9.60;;;4.50;;
16119;SDS011;12670;53.502;10.252;2023-10-09T16:12:32;18.23;;;6.03;;
16119;SDS011;12670;53.502;10.252;2023-10-09T16:15:40;13.90;;;6.00;;
16119;SDS011;12670;53.502;10.252;2023-10-09T16:18:45;9.43;;;4.33;;
16119;SDS011;12670;53.502;10.252;2023-10-09T16:21:48;7.35;;;3.80;;
16119;SDS011;12670;53.502;10.252;2023-10-09T16:24:54;4.80;;;3.80;;
16119;SDS011;12670;53.502;10.252;2023-10-09T16:27:57;4.20;;;3.13;;
16119;SDS011;12670;53.502;10.252;2023-10-09T16:31:00;6.63;;;3.17;;
16119;SDS011;12670;53.502;10.252;2023-10-09T16:34:05;5.47;;;3.20;;
16119;SDS011;12670;53.502;10.252;2023-10-09T16:37:08;5.47;;;3.30;;
16119;SDS011;12670;53.502;10.252;2023-10-09T16:40:12;5.50;;;3.40;;
16119;SDS011;12670;53.502;10.252;2023-10-09T16:43:15;7.90;;;4.10;;
16119;SDS011;12670;53.502;10.252;2023-10-09T16:46:18;4.97;;;3.87;;
16119;SDS011;12670;53.502;10.252;2023-10-09T16:49:24;5.20;;;3.70;;
16119;SDS011;12670;53.502;10.252;2023-10-09T16:52:27;5.70;;;3.90;;
16119;SDS011;12670;53.502;10.252;2023-10-09T16:55:31;5.53;;;3.90;;
16119;SDS011;12670;53.502;10.252;2023-10-09T16:58:34;10.60;;;7.13;;
16119;SDS011;12670;53.502;10.252;2023-10-09T17:01:36;13.77;;;10.57;;
16119;SDS011;12670;53.502;10.252;2023-10-09T17:04:42;9.17;;;6.63;;
16119;SDS011;12670;53.502;10.252;2023-10-09T17:07:45;14.03;;;8.03;;
16119;SDS011;12670;53.502;10.252;2023-10-09T17:10:50;15.03;;;12.07;;
16119;SDS011;12670;53.502;10.252;2023-10-09T17:13:53;7.17;;;6.10;;
16119;SDS011;12670;53.502;10.252;2023-10-09T17:16:58;10.57;;;5.37;;
16119;SDS011;12670;53.502;10.252;2023-10-09T17:20:03;6.57;;;4.73;;
16119;SDS011;12670;53.502;10.252;2023-10-09T17:23:11;7.13;;;5.10;;
16119;SDS011;12670;53.502;10.252;2023-10-09T17:26:14;8.57;;;5.83;;
16119;SDS011;12670;53.502;10.252;2023-10-09T17:29:19;9.43;;;6.00;;
16119;SDS011;12670;53.502;10.252;2023-10-09T17:32:22;10.00;;;6.43;;
16119;SDS011;12670;53.502;10.252;2023-10-09T17:35:26;12.10;;;6.93;;
16119;SDS011;12670;53.502;10.252;2023-10-09T17:38:32;9.73;;;6.77;;
16119;SDS011;12670;53.502;10.252;2023-10-09T17:41:35;11.23;;;6.70;;
16119;SDS011;12670;53.502;10.252;2023-10-09T17:44:39;8.77;;;6.03;;
16119;SDS011;12670;53.502;10.252;2023-10-09T17:47:41;8.73;;;6.10;;
16119;SDS011;12670;53.502;10.252;2023-10-09T17:50:47;7.73;;;5.40;;
16119;SDS011;12670;53.502;10.252;2023-10-09T17:53:50;6.83;;;4.63;;
16119;SDS011;12670;53.502;10.252;2023-10-09T17:56:53;11.03;;;5.90;;
16119;SDS011;12670;53.502;10.252;2023-10-09T17:59:57;8.23;;;5.30;;
16119;SDS011;12670;53.502;10.252;2023-10-09T18:02:59;13.10;;;4.63;;
16119;SDS011;12670;53.502;10.252;2023-10-09T18:06:04;10.00;;;4.23;;
16119;SDS011;12670;53.502;10.252;2023-10-09T18:09:06;5.90;;;4.27;;
16119;SDS011;12670;53.502;10.252;2023-10-09T18:12:17;7.97;;;4.50;;
16119;SDS011;12670;53.502;10.252;2023-10-09T18:15:20;15.67;;;8.13;;
16119;SDS011;12670;53.502;10.252;2023-10-09T18:18:23;10.23;;;5.60;;
16119;SDS011;12670;53.502;10.252;2023-10-09T18:21:27;6.20;;;3.47;;
16119;SDS011;12670;53.502;10.252;2023-10-09T18:24:30;9.70;;;4.17;;
16119;SDS011;12670;53.502;10.252;2023-10-09T18:27:37;5.90;;;3.33;;
16119;SDS011;12670;53.502;10.252;2023-10-09T18:30:41;4.20;;;2.93;;
16119;SDS011;12670;53.502;10.252;2023-10-09T18:33:46;6.67;;;4.20;;
16119;SDS011;12670;53.502;10.252;2023-10-09T18:36:50;9.43;;;5.10;;
16119;SDS011;12670;53.502;10.252;2023-10-09T18:39:53;4.40;;;3.13;;